Time;durP1;ratioP1;P1;durP2;ratioP2;P2;SDS_P1;SDS_P2;PMS_P1;PMS_P2;Temp;Humidity;BMP_temperature;BMP_pressure;BME280_temperature;BME280_humidity;BME280_pressure;Samples;Min_cycle;Max_cycle;Signal;HPM_P1;HPM_P2
2024/03/07 00:01:26;;;;;;;;;;;17.80;60.10;;;;;;5092996;28;19908;-69
2024/03/07 00:03:52;;;;;;;;;;;17.80;60.40;;;;;;5092618;28;19966;-69
2024/03/07 00:06:17;;;;;;;;;;;17.80;60.40;;;;;;5092824;28;20377;-69
2024/03/07 00:08:43;;;;;;;;;;;17.70;60.60;;;;;;5092729;28;20320;-69
2024/03/07 00:11:09;;;;;;;;;;;17.90;60.80;;;;;;5092738;28;19940;-69
2024/03/07 00:13:34;;;;;;;;;;;17.80;60.80;;;;;;5092748;28;20004;-69
2024/03/07 00:16:01;;;;;;;;;;;17.80;60.70;;;;;;5092688;28;20334;-69
2024/03/07 00:18:27;;;;;;;;;;;17.70;60.40;;;;;;5092642;28;20279;-69
2024/03/07 00:20:54;;;;;;;;;;;17.70;60.60;;;;;;5093168;28;19915;-69
2024/03/07 00:23:20;;;;;;;;;;;17.70;60.60;;;;;;5092678;28;19915;-69
2024/03/07 00:25:48;;;;;;;;;;;17.70;60.60;;;;;;5092162;28;20328;-69
2024/03/07 00:28:17;;;;;;;;;;;17.70;60.60;;;;;;5092788;28;19912;-69
2024/03/07 00:30:45;;;;;;;;;;;17.70;60.80;;;;;;5092566;28;19908;-69
2024/03/07 00:33:11;;;;;;;;;;;17.70;60.90;;;;;;5092570;28;19908;-69
2024/03/07 00:35:37;;;;;;;;;;;17.70;61.00;;;;;;5092406;28;20380;-69
2024/03/07 00:38:02;;;;;;;;;;;17.70;60.70;;;;;;5092391;28;19969;-69
2024/03/07 00:40:28;;;;;;;;;;;17.70;60.60;;;;;;5092402;28;19908;-69
2024/03/07 00:42:53;;;;;;;;;;;17.80;60.80;;;;;;5092320;28;19908;-69
2024/03/07 00:45:19;;;;;;;;;;;17.70;61.00;;;;;;5092545;28;19917;-69
2024/03/07 00:47:44;;;;;;;;;;;17.70;60.90;;;;;;5092285;28;19931;-69
2024/03/07 00:50:10;;;;;;;;;;;17.80;61.00;;;;;;5092420;28;19909;-69
2024/03/07 00:52:36;;;;;;;;;;;17.70;60.80;;;;;;5092287;28;19915;-69
2024/03/07 00:55:02;;;;;;;;;;;17.80;61.00;;;;;;5092190;28;19915;-69
2024/03/07 00:57:29;;;;;;;;;;;17.60;61.30;;;;;;5092118;28;19940;-69
2024/03/07 00:59:56;;;;;;;;;;;17.70;61.00;;;;;;5092118;28;19915;-70
2024/03/07 01:02:22;;;;;;;;;;;17.80;60.90;;;;;;5092172;28;20290;-69
2024/03/07 01:04:48;;;;;;;;;;;17.80;61.20;;;;;;5092219;28;20011;-70
2024/03/07 01:07:14;;;;;;;;;;;17.70;61.40;;;;;;5092374;28;20351;-69
2024/03/07 01:09:39;;;;;;;;;;;17.70;61.40;;;;;;5092211;28;19908;-69
2024/03/07 01:12:05;;;;;;;;;;;17.70;61.40;;;;;;5092020;28;20423;-69
2024/03/07 01:14:31;;;;;;;;;;;17.70;60.90;;;;;;5092053;28;19955;-69
2024/03/07 01:16:56;;;;;;;;;;;17.70;61.40;;;;;;5091929;28;19978;-69
2024/03/07 01:19:22;;;;;;;;;;;17.70;61.20;;;;;;5091889;28;19943;-69
2024/03/07 01:21:48;;;;;;;;;;;17.80;61.30;;;;;;5091870;28;19946;-69
2024/03/07 01:24:17;;;;;;;;;;;17.70;61.20;;;;;;5091664;28;19917;-69
2024/03/07 01:26:43;;;;;;;;;;;17.60;61.20;;;;;;5091916;28;20436;-69
2024/03/07 01:29:09;;;;;;;;;;;17.70;61.30;;;;;;5091864;28;19908;-69
2024/03/07 01:31:34;;;;;;;;;;;17.70;61.70;;;;;;5091780;28;19994;-69
2024/03/07 01:34:00;;;;;;;;;;;17.70;61.40;;;;;;5091810;28;20255;-69
2024/03/07 01:36:25;;;;;;;;;;;17.70;61.30;;;;;;5091787;28;19947;-69
2024/03/07 01:38:51;;;;;;;;;;;17.70;62.00;;;;;;5094872;28;19931;-69
2024/03/07 01:41:17;;;;;;;;;;;17.80;61.30;;;;;;5077376;28;19946;-69
2024/03/07 01:43:42;;;;;;;;;;;17.70;61.20;;;;;;5096017;28;20404;-69
2024/03/07 01:46:08;;;;;;;;;;;17.70;61.30;;;;;;5095427;28;19909;-69
2024/03/07 01:48:34;;;;;;;;;;;17.70;61.00;;;;;;5095729;28;19908;-69
2024/03/07 01:51:00;;;;;;;;;;;17.70;61.10;;;;;;5095349;28;19995;-69
2024/03/07 01:53:27;;;;;;;;;;;17.70;61.20;;;;;;5077135;28;19908;-69
2024/03/07 01:55:53;;;;;;;;;;;17.70;61.30;;;;;;5095713;28;19912;-69
2024/03/07 01:58:20;;;;;;;;;;;17.70;61.00;;;;;;5095177;28;19919;-69
2024/03/07 02:00:46;;;;;;;;;;;17.70;62.10;;;;;;5095508;28;19908;-69
2024/03/07 02:03:13;;;;;;;;;;;17.70;60.70;;;;;;5094919;28;19951;-69
2024/03/07 02:05:39;;;;;;;;;;;17.70;61.30;;;;;;5095256;28;19923;-69
2024/03/07 02:08:05;;;;;;;;;;;17.70;61.10;;;;;;5095025;28;19999;-69
2024/03/07 02:10:30;;;;;;;;;;;17.70;60.90;;;;;;5094921;28;20380;-69
2024/03/07 02:12:56;;;;;;;;;;;17.70;61.00;;;;;;5095489;28;19908;-69
2024/03/07 02:15:22;;;;;;;;;;;17.70;61.20;;;;;;5094724;28;19962;-69
2024/03/07 02:17:47;;;;;;;;;;;17.70;61.40;;;;;;5095053;28;20419;-69
2024/03/07 02:20:13;;;;;;;;;;;17.60;61.20;;;;;;5095035;28;19908;-69
2024/03/07 02:22:39;;;;;;;;;;;17.70;61.30;;;;;;5094944;28;20377;-69
2024/03/07 02:25:06;;;;;;;;;;;17.70;61.30;;;;;;5094564;28;20016;-69
2024/03/07 02:27:32;;;;;;;;;;;17.70;61.20;;;;;;5094798;28;19908;-69
2024/03/07 02:29:58;;;;;;;;;;;17.60;61.10;;;;;;5094726;28;19977;-69
2024/03/07 02:32:26;;;;;;;;;;;17.60;61.20;;;;;;5094350;28;20384;-69
2024/03/07 02:34:52;;;;;;;;;;;17.50;61.10;;;;;;5094425;28;19962;-69
2024/03/07 02:37:18;;;;;;;;;;;17.60;61.30;;;;;;5094618;28;19943;-69
2024/03/07 02:39:44;;;;;;;;;;;17.50;61.00;;;;;;5094333;28;20247;-69
2024/03/07 02:42:11;;;;;;;;;;;17.50;61.00;;;;;;5095226;28;20282;-69
2024/03/07 02:44:38;;;;;;;;;;;17.60;61.20;;;;;;5094178;28;19934;-69
2024/03/07 02:47:04;;;;;;;;;;;17.60;61.10;;;;;;5094225;28;20393;-69
2024/03/07 02:49:30;;;;;;;;;;;17.50;60.80;;;;;;5093963;28;20359;-69
2024/03/07 02:51:56;;;;;;;;;;;17.50;61.00;;;;;;5094231;28;19918;-69
2024/03/07 02:54:22;;;;;;;;;;;17.50;61.00;;;;;;5094073;28;19908;-69
2024/03/07 02:56:48;;;;;;;;;;;17.50;61.20;;;;;;5094252;28;19952;-69
2024/03/07 02:59:14;;;;;;;;;;;17.50;61.00;;;;;;5093908;28;20379;-69
2024/03/07 03:01:40;;;;;;;;;;;17.50;60.70;;;;;;5093603;28;19908;-69
2024/03/07 03:04:06;;;;;;;;;;;17.50;60.90;;;;;;5094175;28;19920;-69
2024/03/07 03:06:32;;;;;;;;;;;17.50;61.20;;;;;;5094126;28;19931;-69
2024/03/07 03:08:58;;;;;;;;;;;17.50;61.00;;;;;;5094277;28;19915;-69
2024/03/07 03:11:25;;;;;;;;;;;17.40;61.30;;;;;;5094068;28;19915;-69
2024/03/07 03:13:51;;;;;;;;;;;17.50;61.10;;;;;;5076115;28;19908;-69
2024/03/07 03:16:17;;;;;;;;;;;17.40;61.20;;;;;;5094016;28;19935;-69
2024/03/07 03:18:43;;;;;;;;;;;17.40;61.20;;;;;;5093988;28;20406;-69
2024/03/07 03:21:09;;;;;;;;;;;17.40;61.20;;;;;;5094015;28;19954;-69
2024/03/07 03:23:35;;;;;;;;;;;17.40;61.20;;;;;;5093786;28;20270;-69
2024/03/07 03:26:01;;;;;;;;;;;17.60;61.30;;;;;;5093772;28;19916;-69
2024/03/07 03:28:27;;;;;;;;;;;17.40;60.80;;;;;;5093646;28;19916;-69
2024/03/07 03:30:53;;;;;;;;;;;17.40;61.30;;;;;;5093331;28;20396;-69
2024/03/07 03:33:20;;;;;;;;;;;17.30;61.70;;;;;;5093326;28;19912;-69
2024/03/07 03:35:46;;;;;;;;;;;17.30;61.10;;;;;;5093264;28;19912;-69
2024/03/07 03:38:12;;;;;;;;;;;17.30;61.10;;;;;;5093816;28;20449;-69
2024/03/07 03:40:38;;;;;;;;;;;17.30;61.00;;;;;;5093184;28;19950;-69
2024/03/07 03:43:03;;;;;;;;;;;17.30;61.00;;;;;;5093239;28;19908;-69
2024/03/07 03:45:29;;;;;;;;;;;17.30;61.10;;;;;;5093087;28;19916;-69
2024/03/07 03:47:56;;;;;;;;;;;17.30;58.50;;;;;;5092643;28;20153;-69
2024/03/07 03:50:23;;;;;;;;;;;17.30;60.60;;;;;;5093392;28;19912;-69
2024/03/07 03:52:49;;;;;;;;;;;17.20;60.80;;;;;;5093016;28;19930;-69
2024/03/07 03:55:15;;;;;;;;;;;17.30;60.90;;;;;;5092930;28;20443;-69
2024/03/07 03:57:41;;;;;;;;;;;17.30;61.00;;;;;;5092925;28;19955;-69
2024/03/07 04:00:17;;;;;;;;;;;17.30;61.20;;;;;;5092724;28;19908;-69
2024/03/07 04:02:43;;;;;;;;;;;17.20;60.40;;;;;;5092577;28;20436;-69
2024/03/07 04:05:10;;;;;;;;;;;17.20;61.20;;;;;;5092686;28;20393;-69
2024/03/07 04:07:39;;;;;;;;;;;17.20;61.20;;;;;;5093489;28;20366;-69
2024/03/07 04:10:07;;;;;;;;;;;17.30;57.00;;;;;;5093011;28;19908;-69
2024/03/07 04:12:34;;;;;;;;;;;17.20;60.40;;;;;;5092937;28;19991;-69
2024/03/07 04:15:00;;;;;;;;;;;17.20;61.40;;;;;;5092824;28;19935;-69
2024/03/07 04:17:27;;;;;;;;;;;17.20;61.10;;;;;;5092671;28;19912;-69
2024/03/07 04:19:53;;;;;;;;;;;17.20;61.00;;;;;;5092575;28;20419;-69
2024/03/07 04:22:19;;;;;;;;;;;17.20;61.00;;;;;;5092759;28;19914;-69
2024/03/07 04:24:45;;;;;;;;;;;17.20;61.10;;;;;;5092665;28;20007;-69
2024/03/07 04:27:11;;;;;;;;;;;17.20;61.40;;;;;;5092974;28;20352;-69
2024/03/07 04:29:37;;;;;;;;;;;17.20;60.80;;;;;;5092459;28;19963;-69
2024/03/07 04:32:03;;;;;;;;;;;17.10;61.30;;;;;;5092708;28;20010;-69
2024/03/07 04:34:32;;;;;;;;;;;17.20;60.90;;;;;;5093266;28;19961;-69
2024/03/07 04:37:15;;;;;;;;;;;17.10;61.30;;;;;;5090953;28;19962;-69
2024/03/07 04:39:41;;;;;;;;;;;17.10;61.80;;;;;;5092452;28;19916;-69
2024/03/07 04:42:08;;;;;;;;;;;17.10;61.50;;;;;;5092449;28;20200;-69
2024/03/07 04:44:37;;;;;;;;;;;17.10;62.60;;;;;;5092548;28;20287;-69
2024/03/07 04:47:03;;;;;;;;;;;17.10;61.90;;;;;;5092566;28;19908;-69
2024/03/07 04:49:30;;;;;;;;;;;17.00;61.40;;;;;;5092253;28;20401;-69
2024/03/07 04:52:00;;;;;;;;;;;17.10;61.90;;;;;;5092056;28;19908;-69
2024/03/07 04:54:42;;;;;;;;;;;17.10;62.30;;;;;;5090616;28;19910;-69
2024/03/07 04:57:09;;;;;;;;;;;17.00;62.00;;;;;;5092485;28;19954;-69
2024/03/07 04:59:35;;;;;;;;;;;17.00;62.00;;;;;;5092125;28;19997;-69
2024/03/07 05:02:02;;;;;;;;;;;17.10;61.80;;;;;;5092111;28;19963;-69
2024/03/07 05:04:29;;;;;;;;;;;17.10;61.80;;;;;;5092863;28;19916;-69
2024/03/07 05:06:55;;;;;;;;;;;17.10;62.40;;;;;;5092279;28;19915;-69
2024/03/07 05:09:25;;;;;;;;;;;17.00;62.40;;;;;;5092115;28;20388;-69
2024/03/07 05:11:54;;;;;;;;;;;16.50;58.70;;;;;;5092471;28;19908;-69
2024/03/07 05:14:20;;;;;;;;;;;17.00;62.00;;;;;;5096167;28;19908;-69
2024/03/07 05:16:45;;;;;;;;;;;17.00;62.70;;;;;;5096135;28;19951;-69
2024/03/07 05:19:11;;;;;;;;;;;17.50;62.40;;;;;;5096021;28;19944;-69
2024/03/07 05:21:42;;;;;;;;;;;17.00;62.70;;;;;;5095997;28;19912;-69
2024/03/07 05:24:08;;;;;;;;;;;17.00;59.10;;;;;;5095977;28;19916;-69
2024/03/07 05:26:37;;;;;;;;;;;17.00;62.70;;;;;;5095973;28;19916;-69
2024/03/07 05:29:07;;;;;;;;;;;17.00;62.80;;;;;;5095893;28;19908;-69
2024/03/07 05:31:37;;;;;;;;;;;17.10;62.30;;;;;;5096291;28;19908;-69
2024/03/07 05:34:08;;;;;;;;;;;17.00;62.70;;;;;;5095713;28;19916;-69
2024/03/07 05:36:34;;;;;;;;;;;17.00;62.90;;;;;;5095782;28;19914;-69
2024/03/07 05:39:02;;;;;;;;;;;17.00;62.60;;;;;;5095906;28;20271;-69
2024/03/07 05:41:29;;;;;;;;;;;17.10;63.00;;;;;;5095579;28;19908;-69
2024/03/07 05:43:55;;;;;;;;;;;17.00;62.50;;;;;;5095849;28;20020;-69
2024/03/07 05:46:22;;;;;;;;;;;17.00;62.90;;;;;;5095785;28;19922;-69
2024/03/07 05:48:51;;;;;;;;;;;17.00;62.40;;;;;;5095456;28;19934;-69
2024/03/07 05:51:18;;;;;;;;;;;16.90;62.30;;;;;;5095628;28;19988;-69
2024/03/07 05:53:44;;;;;;;;;;;17.00;62.70;;;;;;5095717;28;19989;-69
2024/03/07 05:56:10;;;;;;;;;;;17.00;62.40;;;;;;5095531;28;19908;-69
2024/03/07 05:58:36;;;;;;;;;;;16.90;62.50;;;;;;5095511;28;20274;-69
2024/03/07 06:01:01;;;;;;;;;;;17.00;62.50;;;;;;5096021;28;19912;-69
2024/03/07 06:03:27;;;;;;;;;;;16.90;62.00;;;;;;5094968;28;19999;-69
2024/03/07 06:05:53;;;;;;;;;;;17.00;62.50;;;;;;5095395;28;20316;-69
2024/03/07 06:08:20;;;;;;;;;;;17.40;62.60;;;;;;5095276;28;19915;-69
2024/03/07 06:10:46;;;;;;;;;;;17.00;62.80;;;;;;5094954;28;19908;-69
2024/03/07 06:13:13;;;;;;;;;;;16.90;61.90;;;;;;5095218;28;19960;-69
2024/03/07 06:15:39;;;;;;;;;;;16.90;62.20;;;;;;5095134;28;19947;-69
2024/03/07 06:18:07;;;;;;;;;;;16.90;62.20;;;;;;5094969;28;19908;-69
2024/03/07 06:20:34;;;;;;;;;;;16.90;62.20;;;;;;5094934;28;19908;-68
2024/03/07 06:23:03;;;;;;;;;;;16.80;62.40;;;;;;5094208;28;19908;-68
2024/03/07 06:25:50;;;;;;;;;;;16.90;62.10;;;;;;5094796;28;19962;-68
2024/03/07 06:28:16;;;;;;;;;;;16.90;59.00;;;;;;5095225;28;20289;-68
2024/03/07 06:30:42;;;;;;;;;;;17.10;62.60;;;;;;5094600;28;19908;-68
2024/03/07 06:33:08;;;;;;;;;;;16.90;62.40;;;;;;5094762;28;20309;-68
2024/03/07 06:35:38;;;;;;;;;;;17.00;62.20;;;;;;5094469;28;19915;-69
2024/03/07 06:38:05;;;;;;;;;;;16.90;58.90;;;;;;5094476;28;19908;-68
2024/03/07 06:40:32;;;;;;;;;;;16.80;62.30;;;;;;5094497;28;19912;-68
2024/03/07 06:43:03;;;;;;;;;;;16.80;62.10;;;;;;5094599;28;19908;-68
2024/03/07 06:45:29;;;;;;;;;;;16.80;57.80;;;;;;5094100;28;19916;-69
2024/03/07 06:47:55;;;;;;;;;;;16.80;62.20;;;;;;5094352;28;19931;-69
2024/03/07 06:50:21;;;;;;;;;;;16.80;61.90;;;;;;5094246;28;19908;-69
2024/03/07 06:52:47;;;;;;;;;;;16.80;62.50;;;;;;5094168;28;20358;-68
2024/03/07 06:55:16;;;;;;;;;;;16.80;62.00;;;;;;5094126;28;20002;-69
2024/03/07 06:57:42;;;;;;;;;;;16.80;57.80;;;;;;5094786;28;19912;-69
2024/03/07 07:00:11;;;;;;;;;;;16.80;62.20;;;;;;5094476;28;20431;-69
2024/03/07 07:02:39;;;;;;;;;;;16.80;61.80;;;;;;5093810;28;20014;-69
2024/03/07 07:05:10;;;;;;;;;;;16.80;57.90;;;;;;5094027;28;20282;-69
2024/03/07 07:07:39;;;;;;;;;;;16.80;61.60;;;;;;5100616;28;19947;-68
2024/03/07 07:10:07;;;;;;;;;;;16.70;62.20;;;;;;5093806;28;19915;-69
2024/03/07 07:12:33;;;;;;;;;;;16.90;61.70;;;;;;5093648;28;20398;-68
2024/03/07 07:14:58;;;;;;;;;;;16.80;61.20;;;;;;5093618;28;19909;-68
2024/03/07 07:17:25;;;;;;;;;;;16.70;62.30;;;;;;5093664;28;19915;-68
2024/03/07 07:19:52;;;;;;;;;;;16.70;62.20;;;;;;5093625;28;19908;-68
2024/03/07 07:22:18;;;;;;;;;;;16.70;62.10;;;;;;5093787;28;19908;-68
2024/03/07 07:24:46;;;;;;;;;;;16.70;61.90;;;;;;5075345;28;19938;-68
2024/03/07 07:27:12;;;;;;;;;;;16.60;58.60;;;;;;5093399;28;19909;-68
2024/03/07 07:29:38;;;;;;;;;;;16.70;62.40;;;;;;5093377;28;19908;-68
2024/03/07 07:32:05;;;;;;;;;;;17.10;62.30;;;;;;5093616;28;19907;-68
2024/03/07 07:34:31;;;;;;;;;;;16.70;61.10;;;;;;5093194;28;19977;-69
2024/03/07 07:36:56;;;;;;;;;;;16.70;62.20;;;;;;5092989;28;20358;-69
2024/03/07 07:39:22;;;;;;;;;;;16.70;62.10;;;;;;5093391;28;19947;-69
2024/03/07 07:41:48;;;;;;;;;;;16.70;62.50;;;;;;5093154;28;19953;-71
2024/03/07 07:44:13;;;;;;;;;;;16.70;62.80;;;;;;5093213;28;19927;-70
2024/03/07 07:46:40;;;;;;;;;;;16.70;62.20;;;;;;5093084;28;19962;-71
2024/03/07 07:49:06;;;;;;;;;;;16.60;62.20;;;;;;5093120;28;20450;-68
2024/03/07 07:51:31;;;;;;;;;;;17.10;62.40;;;;;;5093000;28;19908;-70
2024/03/07 07:53:57;;;;;;;;;;;16.70;62.40;;;;;;5093598;28;19912;-71
2024/03/07 07:56:24;;;;;;;;;;;16.70;62.20;;;;;;5093152;28;19908;-70
2024/03/07 07:58:49;;;;;;;;;;;16.70;62.50;;;;;;5092862;28;19908;-69
2024/03/07 08:01:18;;;;;;;;;;;16.70;62.20;;;;;;5092884;28;19931;-71
2024/03/07 08:03:43;;;;;;;;;;;16.70;61.70;;;;;;5092486;28;20007;-72
2024/03/07 08:06:09;;;;;;;;;;;16.70;62.60;;;;;;5092948;28;20476;-70
2024/03/07 08:08:35;;;;;;;;;;;16.70;62.50;;;;;;5092989;28;19908;-70
2024/03/07 08:11:02;;;;;;;;;;;16.60;62.80;;;;;;5093145;28;19915;-69
2024/03/07 08:13:27;;;;;;;;;;;16.60;62.30;;;;;;5092803;28;20351;-69
2024/03/07 08:15:55;;;;;;;;;;;16.60;62.60;;;;;;5092648;28;20006;-69
2024/03/07 08:18:21;;;;;;;;;;;16.60;62.80;;;;;;5092644;28;19908;-70
2024/03/07 08:20:46;;;;;;;;;;;16.60;63.00;;;;;;5092556;28;19918;-70
2024/03/07 08:23:15;;;;;;;;;;;16.60;63.20;;;;;;5093359;28;19977;-71
2024/03/07 08:25:40;;;;;;;;;;;16.70;62.80;;;;;;5092528;28;19970;-70
2024/03/07 08:28:06;;;;;;;;;;;16.70;63.50;;;;;;5092551;28;19908;-70
2024/03/07 08:30:32;;;;;;;;;;;16.70;63.40;;;;;;5092604;28;19950;-70
2024/03/07 08:32:58;;;;;;;;;;;16.70;63.30;;;;;;5092444;28;19908;-70
2024/03/07 08:35:24;;;;;;;;;;;16.40;63.10;;;;;;5092606;28;19931;-69
2024/03/07 08:37:54;;;;;;;;;;;16.70;63.20;;;;;;5092579;28;20362;-70
2024/03/07 08:40:20;;;;;;;;;;;16.70;63.80;;;;;;5092442;28;19908;-70
2024/03/07 08:42:46;;;;;;;;;;;16.70;63.10;;;;;;5092190;28;19909;-70
2024/03/07 08:45:16;;;;;;;;;;;16.80;63.40;;;;;;5092192;28;19920;-70
2024/03/07 08:47:42;;;;;;;;;;;16.80;63.30;;;;;;5097937;28;20037;-70
2024/03/07 08:50:16;;;;;;;;;;;16.90;63.60;;;;;;5099057;28;20326;-70
2024/03/07 08:52:42;;;;;;;;;;;16.60;59.10;;;;;;5098890;28;19908;-73
2024/03/07 08:55:11;;;;;;;;;;;16.90;63.40;;;;;;5098936;28;19908;-70
2024/03/07 08:57:37;;;;;;;;;;;16.90;63.00;;;;;;5098891;28;19916;-70
2024/03/07 09:00:10;;;;;;;;;;;16.90;63.60;;;;;;5099231;28;19908;-70
2024/03/07 09:02:39;;;;;;;;;;;17.00;63.20;;;;;;5102019;28;20294;-70
2024/03/07 09:05:05;;;;;;;;;;;17.00;63.70;;;;;;5098744;28;20014;-70
2024/03/07 09:07:30;;;;;;;;;;;16.90;62.70;;;;;;5098764;28;20381;-70
2024/03/07 09:09:56;;;;;;;;;;;17.00;63.40;;;;;;5099069;28;19954;-71
2024/03/07 09:12:22;;;;;;;;;;;17.10;63.70;;;;;;5081523;28;19908;-71
2024/03/07 09:14:47;;;;;;;;;;;17.00;63.60;;;;;;5098717;28;19922;-70
2024/03/07 09:17:13;;;;;;;;;;;17.20;63.80;;;;;;5098966;28;20000;-69
2024/03/07 09:19:39;;;;;;;;;;;17.10;63.80;;;;;;5099175;28;19951;-69
2024/03/07 09:22:07;;;;;;;;;;;17.20;63.70;;;;;;5098568;28;19908;-69
2024/03/07 09:24:34;;;;;;;;;;;17.20;63.70;;;;;;5098880;28;19916;-69
2024/03/07 09:27:00;;;;;;;;;;;17.30;63.10;;;;;;5098534;28;19908;-69
2024/03/07 09:29:27;;;;;;;;;;;17.20;63.70;;;;;;5098581;28;20469;-69
2024/03/07 09:31:53;;;;;;;;;;;17.30;63.60;;;;;;5098607;28;20341;-69
2024/03/07 09:34:20;;;;;;;;;;;17.30;63.80;;;;;;5098764;28;19923;-69
2024/03/07 09:36:46;;;;;;;;;;;17.40;63.60;;;;;;5098528;28;20390;-69
2024/03/07 09:39:12;;;;;;;;;;;17.60;63.60;;;;;;5098469;28;19909;-69
2024/03/07 09:41:39;;;;;;;;;;;17.30;63.60;;;;;;5098541;28;19915;-69
2024/03/07 09:44:04;;;;;;;;;;;17.20;63.50;;;;;;5098384;28;19909;-69
2024/03/07 09:46:30;;;;;;;;;;;17.40;63.60;;;;;;5098507;28;19914;-69
2024/03/07 09:48:58;;;;;;;;;;;17.40;63.10;;;;;;5098932;28;19961;-68
2024/03/07 09:51:23;;;;;;;;;;;17.50;63.30;;;;;;5098429;28;20256;-68
2024/03/07 09:53:50;;;;;;;;;;;17.60;63.30;;;;;;5098512;28;19931;-68
2024/03/07 09:56:26;;;;;;;;;;;17.60;62.50;;;;;;5098356;28;20470;-68
2024/03/07 09:58:53;;;;;;;;;;;17.60;63.00;;;;;;5095475;28;19962;-68
2024/03/07 10:01:20;;;;;;;;;;;17.60;63.20;;;;;;5095399;28;20278;-68
2024/03/07 10:03:47;;;;;;;;;;;17.70;62.80;;;;;;5094801;28;19924;-68
2024/03/07 10:06:13;;;;;;;;;;;17.60;63.00;;;;;;5095161;28;19916;-68
2024/03/07 10:08:40;;;;;;;;;;;17.80;63.00;;;;;;5076786;28;19931;-68
2024/03/07 10:11:08;;;;;;;;;;;17.70;62.80;;;;;;5094885;28;20026;-68
2024/03/07 10:13:35;;;;;;;;;;;17.80;62.80;;;;;;5094848;28;19915;-68
2024/03/07 10:16:01;;;;;;;;;;;17.90;62.50;;;;;;5095407;28;19953;-68
2024/03/07 10:18:27;;;;;;;;;;;17.90;63.00;;;;;;5094785;28;20002;-68
2024/03/07 10:20:55;;;;;;;;;;;18.00;62.70;;;;;;5094759;28;19908;-69
2024/03/07 10:23:21;;;;;;;;;;;18.00;62.70;;;;;;5094551;28;19910;-68
2024/03/07 10:25:47;;;;;;;;;;;18.00;62.40;;;;;;5094558;28;20085;-69
2024/03/07 10:28:12;;;;;;;;;;;18.20;63.00;;;;;;5094698;28;19915;-68
2024/03/07 10:30:41;;;;;;;;;;;18.10;62.80;;;;;;5094619;28;20251;-68
2024/03/07 10:33:07;;;;;;;;;;;18.20;58.50;;;;;;5094502;28;19973;-68
2024/03/07 10:35:32;;;;;;;;;;;18.20;62.20;;;;;;5094530;28;20370;-68
2024/03/07 10:38:06;;;;;;;;;;;18.20;62.40;;;;;;5076254;28;20023;-68
2024/03/07 10:40:32;;;;;;;;;;;18.30;61.00;;;;;;5101211;28;20424;-68
2024/03/07 10:42:58;;;;;;;;;;;18.40;62.20;;;;;;5094329;28;19912;-68
2024/03/07 10:45:26;;;;;;;;;;;18.50;61.40;;;;;;5094649;28;19923;-68
2024/03/07 10:48:00;;;;;;;;;;;18.40;62.40;;;;;;5094190;28;20027;-68
2024/03/07 10:50:35;;;;;;;;;;;18.50;58.10;;;;;;5100970;28;19981;-68
2024/03/07 10:53:07;;;;;;;;;;;18.50;57.50;;;;;;5094046;28;19908;-68
2024/03/07 10:55:36;;;;;;;;;;;18.60;57.50;;;;;;5094104;28;20425;-68
2024/03/07 10:58:06;;;;;;;;;;;18.60;61.30;;;;;;5094332;28;19908;-68
2024/03/07 11:00:45;;;;;;;;;;;18.70;61.20;;;;;;5094044;28;19908;-68
2024/03/07 11:03:11;;;;;;;;;;;18.90;60.70;;;;;;5093747;28;19926;-68
2024/03/07 11:05:37;;;;;;;;;;;18.90;61.50;;;;;;5093841;28;20019;-68
2024/03/07 11:08:12;;;;;;;;;;;18.80;60.90;;;;;;5093922;28;19961;-68
2024/03/07 11:10:38;;;;;;;;;;;19.00;60.80;;;;;;5092655;28;20277;-68
2024/03/07 11:13:04;;;;;;;;;;;19.00;61.10;;;;;;5094332;28;19931;-68
2024/03/07 11:15:31;;;;;;;;;;;19.00;61.00;;;;;;5093723;28;19912;-68
2024/03/07 11:17:56;;;;;;;;;;;19.10;61.00;;;;;;5093621;28;20381;-68
2024/03/07 11:20:23;;;;;;;;;;;19.20;60.50;;;;;;5093681;28;19908;-68
2024/03/07 11:22:49;;;;;;;;;;;19.20;61.40;;;;;;5075490;28;20441;-70
2024/03/07 11:25:19;;;;;;;;;;;19.30;60.50;;;;;;5093889;28;19961;-76
2024/03/07 11:27:53;;;;;;;;;;;19.30;56.40;;;;;;5093507;28;20362;-68
2024/03/07 11:30:21;;;;;;;;;;;19.40;56.40;;;;;;5093842;28;19912;-68
2024/03/07 11:32:48;;;;;;;;;;;19.40;60.30;;;;;;5093540;28;19998;-69
2024/03/07 11:35:14;;;;;;;;;;;19.50;59.90;;;;;;5093559;28;19918;-69
2024/03/07 11:37:43;;;;;;;;;;;19.50;59.90;;;;;;5093458;28;19938;-69
2024/03/07 11:40:21;;;;;;;;;;;19.60;59.80;;;;;;5093344;28;20006;-69
2024/03/07 11:42:47;;;;;;;;;;;19.50;55.90;;;;;;5093890;28;19912;-69
2024/03/07 11:45:24;;;;;;;;;;;19.60;59.50;;;;;;5093105;28;19962;-68
2024/03/07 11:48:00;;;;;;;;;;;19.70;59.50;;;;;;5093180;28;19971;-68
2024/03/07 11:50:26;;;;;;;;;;;19.70;55.60;;;;;;5093155;28;19908;-68
2024/03/07 11:52:52;;;;;;;;;;;19.80;59.30;;;;;;5093154;28;19908;-69
2024/03/07 11:55:19;;;;;;;;;;;19.90;59.60;;;;;;5092976;28;19995;-68
2024/03/07 11:57:45;;;;;;;;;;;19.90;59.30;;;;;;5092998;28;20374;-69
2024/03/07 12:00:12;;;;;;;;;;;20.00;58.90;;;;;;5092910;28;19908;-69
2024/03/07 12:02:38;;;;;;;;;;;20.10;58.80;;;;;;5092592;28;20386;-69
2024/03/07 12:05:07;;;;;;;;;;;20.00;58.80;;;;;;5092715;28;20366;-69
2024/03/07 12:07:34;;;;;;;;;;;20.00;58.20;;;;;;5092729;28;20392;-70
2024/03/07 12:10:03;;;;;;;;;;;20.10;58.50;;;;;;5093518;28;19908;-70
2024/03/07 12:12:29;;;;;;;;;;;20.20;58.50;;;;;;5093045;28;19917;-70
2024/03/07 12:14:55;;;;;;;;;;;20.20;58.50;;;;;;5092906;28;20370;-70
2024/03/07 12:17:22;;;;;;;;;;;20.30;58.30;;;;;;5093029;28;19908;-71
2024/03/07 12:19:52;;;;;;;;;;;20.30;58.40;;;;;;5092641;28;20025;-71
2024/03/07 12:22:35;;;;;;;;;;;20.40;58.30;;;;;;5090954;28;19908;-71
2024/03/07 12:25:08;;;;;;;;;;;20.50;58.20;;;;;;5092497;28;19916;-71
2024/03/07 12:27:33;;;;;;;;;;;20.50;58.10;;;;;;5092884;28;20271;-70
2024/03/07 12:30:16;;;;;;;;;;;21.20;58.20;;;;;;5092504;28;19926;-70
2024/03/07 12:32:51;;;;;;;;;;;20.50;57.10;;;;;;5092526;28;19915;-69
2024/03/07 12:35:18;;;;;;;;;;;20.60;54.30;;;;;;5092716;28;19934;-69
2024/03/07 12:37:43;;;;;;;;;;;20.60;58.00;;;;;;5092438;28;19908;-70
2024/03/07 12:40:17;;;;;;;;;;;20.70;57.90;;;;;;5092906;28;20389;-70
2024/03/07 12:42:45;;;;;;;;;;;20.70;54.20;;;;;;5099237;28;19908;-70
2024/03/07 12:45:17;;;;;;;;;;;20.70;57.60;;;;;;5092275;28;19916;-70
2024/03/07 12:47:43;;;;;;;;;;;20.80;57.80;;;;;;5099182;28;19909;-70
2024/03/07 12:50:09;;;;;;;;;;;20.80;57.90;;;;;;5092398;28;19914;-70
2024/03/07 12:52:34;;;;;;;;;;;20.90;56.60;;;;;;5092415;28;20370;-70
2024/03/07 12:55:00;;;;;;;;;;;20.80;57.40;;;;;;5092525;28;19931;-70
2024/03/07 12:57:26;;;;;;;;;;;21.00;57.50;;;;;;5092255;28;19915;-70
2024/03/07 12:59:52;;;;;;;;;;;21.00;57.40;;;;;;5092469;28;19915;-70
2024/03/07 13:02:18;;;;;;;;;;;21.10;57.20;;;;;;5092156;28;19920;-70
2024/03/07 13:04:45;;;;;;;;;;;21.00;57.30;;;;;;5092331;28;19939;-70
2024/03/07 13:07:10;;;;;;;;;;;21.00;57.40;;;;;;5092632;28;20397;-70
2024/03/07 13:09:40;;;;;;;;;;;20.90;58.20;;;;;;5092049;28;19912;-70
2024/03/07 13:12:09;;;;;;;;;;;20.80;56.20;;;;;;5092400;28;20270;-70
2024/03/07 13:14:35;;;;;;;;;;;20.90;57.80;;;;;;5092062;28;19914;-70
2024/03/07 13:17:02;;;;;;;;;;;20.70;58.80;;;;;;5092283;28;20293;-70
2024/03/07 13:19:29;;;;;;;;;;;20.70;59.10;;;;;;5092326;28;19908;-70
2024/03/07 13:21:56;;;;;;;;;;;20.50;59.10;;;;;;5091897;28;19913;-70
2024/03/07 13:24:22;;;;;;;;;;;20.40;59.20;;;;;;5092187;28;19912;-70
2024/03/07 13:26:48;;;;;;;;;;;20.40;59.30;;;;;;5092244;28;19908;-70
2024/03/07 13:29:14;;;;;;;;;;;20.30;59.60;;;;;;5092152;28;19944;-70
2024/03/07 13:31:42;;;;;;;;;;;20.30;60.00;;;;;;5091902;28;19908;-69
2024/03/07 13:34:13;;;;;;;;;;;20.40;59.70;;;;;;5094174;28;20239;-70
2024/03/07 13:36:42;;;;;;;;;;;20.50;59.30;;;;;;5096511;28;20387;-70
2024/03/07 13:39:12;;;;;;;;;;;20.60;56.20;;;;;;5095550;28;19909;-70
2024/03/07 13:41:39;;;;;;;;;;;20.30;59.60;;;;;;5095860;28;19978;-70
2024/03/07 13:44:06;;;;;;;;;;;20.50;59.70;;;;;;5095261;28;19908;-70
2024/03/07 13:46:32;;;;;;;;;;;20.40;59.60;;;;;;5095727;28;19908;-70
2024/03/07 13:49:16;;;;;;;;;;;20.40;59.70;;;;;;5095800;28;19987;-70
2024/03/07 13:51:53;;;;;;;;;;;20.50;55.70;;;;;;5095708;28;20269;-70
2024/03/07 13:54:54;;;;;;;;;;;20.90;59.50;;;;;;5095570;28;19912;-69
2024/03/07 13:57:19;;;;;;;;;;;20.60;55.50;;;;;;5092251;28;20290;-69
2024/03/07 13:59:59;;;;;;;;;;;20.80;55.50;;;;;;5095210;28;20392;-70
2024/03/07 14:02:33;;;;;;;;;;;20.90;58.10;;;;;;5094796;28;20364;-69
2024/03/07 14:05:17;;;;;;;;;;;21.90;58.40;;;;;;5095513;28;20283;-68
2024/03/07 14:07:48;;;;;;;;;;;21.00;54.40;;;;;;5095110;28;19915;-70
2024/03/07 14:10:30;;;;;;;;;;;21.00;54.10;;;;;;5095042;28;20328;-69
2024/03/07 14:13:12;;;;;;;;;;;21.10;54.10;;;;;;5094999;28;19908;-69
2024/03/07 14:15:56;;;;;;;;;;;21.00;53.80;;;;;;5095028;28;19909;-70
2024/03/07 14:18:41;;;;;;;;;;;21.00;54.10;;;;;;5094851;28;19908;-68